sensor_id;sensor_type;location;lat;lon;timestamp;temperature;humidity
24226;DHT22;51462;51.422;5.514;2022-10-14T00:02:05;13.50;99.90
24226;DHT22;51462;51.422;5.514;2022-10-14T00:04:30;13.60;99.90
24226;DHT22;51462;51.422;5.514;2022-10-14T00:06:56;13.50;99.90
24226;DHT22;51462;51.422;5.514;2022-10-14T00:09:22;13.60;99.90
24226;DHT22;51462;51.422;5.514;2022-10-14T00:11:48;13.50;99.90
24226;DHT22;51462;51.422;5.514;2022-10-14T00:14:16;13.50;99.90
24226;DHT22;51462;51.422;5.514;2022-10-14T00:16:45;13.50;99.90
24226;DHT22;51462;51.422;5.514;2022-10-14T00:19:11;13.50;99.90
24226;DHT22;51462;51.422;5.514;2022-10-14T00:21:39;13.50;99.90
24226;DHT22;51462;51.422;5.514;2022-10-14T00:24:06;13.40;99.90
24226;DHT22;51462;51.422;5.514;2022-10-14T00:26:34;13.40;99.90
24226;DHT22;51462;51.422;5.514;2022-10-14T00:29:01;13.40;99.90
24226;DHT22;51462;51.422;5.514;2022-10-14T00:31:27;13.40;99.90
24226;DHT22;51462;51.422;5.514;2022-10-14T00:33:53;13.40;99.90
24226;DHT22;51462;51.422;5.514;2022-10-14T00:36:21;13.40;99.90
24226;DHT22;51462;51.422;5.514;2022-10-14T00:38:47;13.40;99.90
24226;DHT22;51462;51.422;5.514;2022-10-14T00:41:16;13.50;99.90
24226;DHT22;51462;51.422;5.514;2022-10-14T00:46:20;13.40;99.90
24226;DHT22;51462;51.422;5.514;2022-10-14T00:48:46;13.40;99.90
24226;DHT22;51462;51.422;5.514;2022-10-14T00:51:12;13.40;99.90
24226;DHT22;51462;51.422;5.514;2022-10-14T00:53:40;13.50;99.90
24226;DHT22;51462;51.422;5.514;2022-10-14T00:56:08;13.40;99.90
24226;DHT22;51462;51.422;5.514;2022-10-14T00:58:34;13.50;99.90
24226;DHT22;51462;51.422;5.514;2022-10-14T01:00:59;13.40;99.90
24226;DHT22;51462;51.422;5.514;2022-10-14T01:03:25;13.40;99.90
24226;DHT22;51462;51.422;5.514;2022-10-14T01:11:40;13.50;99.90
24226;DHT22;51462;51.422;5.514;2022-10-14T01:14:22;13.40;99.90
24226;DHT22;51462;51.422;5.514;2022-10-14T01:17:14;13.50;99.90
24226;DHT22;51462;51.422;5.514;2022-10-14T01:31:19;13.40;99.90
24226;DHT22;51462;51.422;5.514;2022-10-14T01:33:50;13.40;99.90
24226;DHT22;51462;51.422;5.514;2022-10-14T01:36:17;13.50;99.90
24226;DHT22;51462;51.422;5.514;2022-10-14T01:38:52;13.50;99.90
24226;DHT22;51462;51.422;5.514;2022-10-14T01:41:27;13.50;99.90
24226;DHT22;51462;51.422;5.514;2022-10-14T01:43:57;13.60;99.90
24226;DHT22;51462;51.422;5.514;2022-10-14T01:46:25;13.60;99.90
24226;DHT22;51462;51.422;5.514;2022-10-14T01:48:58;13.60;99.90
24226;DHT22;51462;51.422;5.514;2022-10-14T01:51:30;13.60;99.90
24226;DHT22;51462;51.422;5.514;2022-10-14T01:54:01;13.70;99.90
24226;DHT22;51462;51.422;5.514;2022-10-14T01:56:29;13.70;99.90
24226;DHT22;51462;51.422;5.514;2022-10-14T01:58:58;13.70;99.90
24226;DHT22;51462;51.422;5.514;2022-10-14T02:01:25;13.60;99.90
24226;DHT22;51462;51.422;5.514;2022-10-14T02:03:51;13.60;99.90
24226;DHT22;51462;51.422;5.514;2022-10-14T02:06:34;13.60;99.90
24226;DHT22;51462;51.422;5.514;2022-10-14T02:09:23;13.70;99.90
24226;DHT22;51462;51.422;5.514;2022-10-14T02:12:11;13.70;99.90
24226;DHT22;51462;51.422;5.514;2022-10-14T02:20:28;13.60;99.90
24226;DHT22;51462;51.422;5.514;2022-10-14T02:23:03;13.60;99.90
24226;DHT22;51462;51.422;5.514;2022-10-14T02:25:34;13.50;99.90
24226;DHT22;51462;51.422;5.514;2022-10-14T02:28:02;13.50;99.90
24226;DHT22;51462;51.422;5.514;2022-10-14T02:30:32;13.50;99.90
24226;DHT22;51462;51.422;5.514;2022-10-14T02:32:59;13.50;99.90
24226;DHT22;51462;51.422;5.514;2022-10-14T02:35:25;13.50;99.90
24226;DHT22;51462;51.422;5.514;2022-10-14T02:37:52;13.60;99.90
24226;DHT22;51462;51.422;5.514;2022-10-14T02:42:52;13.60;99.90
24226;DHT22;51462;51.422;5.514;2022-10-14T02:45:18;13.60;99.90
24226;DHT22;51462;51.422;5.514;2022-10-14T02:47:44;13.60;99.90
24226;DHT22;51462;51.422;5.514;2022-10-14T02:50:10;13.60;99.90
24226;DHT22;51462;51.422;5.514;2022-10-14T02:52:36;13.60;99.90
24226;DHT22;51462;51.422;5.514;2022-10-14T02:55:01;13.50;99.90
24226;DHT22;51462;51.422;5.514;2022-10-14T02:57:27;13.60;99.90
24226;DHT22;51462;51.422;5.514;2022-10-14T02:59:52;13.60;99.90
24226;DHT22;51462;51.422;5.514;2022-10-14T03:02:18;13.60;99.90
24226;DHT22;51462;51.422;5.514;2022-10-14T03:04:44;13.60;99.90
24226;DHT22;51462;51.422;5.514;2022-10-14T03:07:09;13.70;99.90
24226;DHT22;51462;51.422;5.514;2022-10-14T03:09:35;13.70;99.90
24226;DHT22;51462;51.422;5.514;2022-10-14T03:12:00;13.70;99.90
24226;DHT22;51462;51.422;5.514;2022-10-14T03:14:26;13.70;99.90
24226;DHT22;51462;51.422;5.514;2022-10-14T03:16:51;13.70;99.90
24226;DHT22;51462;51.422;5.514;2022-10-14T03:19:17;13.70;99.90
24226;DHT22;51462;51.422;5.514;2022-10-14T03:21:42;13.70;99.90
24226;DHT22;51462;51.422;5.514;2022-10-14T03:24:08;13.70;99.90
24226;DHT22;51462;51.422;5.514;2022-10-14T03:26:34;13.70;99.90
24226;DHT22;51462;51.422;5.514;2022-10-14T03:28:59;13.70;99.90
24226;DHT22;51462;51.422;5.514;2022-10-14T03:31:25;13.70;99.90
24226;DHT22;51462;51.422;5.514;2022-10-14T03:33:51;13.60;99.90
24226;DHT22;51462;51.422;5.514;2022-10-14T03:36:16;13.70;99.90
24226;DHT22;51462;51.422;5.514;2022-10-14T03:38:42;13.70;99.90
24226;DHT22;51462;51.422;5.514;2022-10-14T03:41:07;13.70;99.90
24226;DHT22;51462;51.422;5.514;2022-10-14T03:43:33;13.70;99.90
24226;DHT22;51462;51.422;5.514;2022-10-14T03:45:58;13.70;99.90
24226;DHT22;51462;51.422;5.514;2022-10-14T03:48:24;13.70;99.90
24226;DHT22;51462;51.422;5.514;2022-10-14T03:50:49;13.70;99.90
24226;DHT22;51462;51.422;5.514;2022-10-14T03:53:15;13.70;99.90
24226;DHT22;51462;51.422;5.514;2022-10-14T03:55:41;13.70;99.90
24226;DHT22;51462;51.422;5.514;2022-10-14T03:58:06;13.70;99.90
24226;DHT22;51462;51.422;5.514;2022-10-14T04:00:33;13.70;99.90
24226;DHT22;51462;51.422;5.514;2022-10-14T04:03:00;13.70;99.90
24226;DHT22;51462;51.422;5.514;2022-10-14T04:05:25;13.70;99.90
24226;DHT22;51462;51.422;5.514;2022-10-14T04:07:56;13.70;99.90
24226;DHT22;51462;51.422;5.514;2022-10-14T04:10:22;13.80;99.90
24226;DHT22;51462;51.422;5.514;2022-10-14T04:12:47;13.70;99.90
24226;DHT22;51462;51.422;5.514;2022-10-14T04:15:13;13.70;99.90
24226;DHT22;51462;51.422;5.514;2022-10-14T04:17:38;13.70;99.90
24226;DHT22;51462;51.422;5.514;2022-10-14T04:20:04;13.70;99.90
24226;DHT22;51462;51.422;5.514;2022-10-14T04:22:30;13.80;99.90
24226;DHT22;51462;51.422;5.514;2022-10-14T04:24:57;13.80;99.90
24226;DHT22;51462;51.422;5.514;2022-10-14T04:27:23;13.60;99.90
24226;DHT22;51462;51.422;5.514;2022-10-14T04:29:49;13.70;99.90
24226;DHT22;51462;51.422;5.514;2022-10-14T04:32:14;13.80;99.90
24226;DHT22;51462;51.422;5.514;2022-10-14T04:34:40;13.80;99.90
24226;DHT22;51462;51.422;5.514;2022-10-14T04:37:05;13.80;99.90
24226;DHT22;51462;51.422;5.514;2022-10-14T04:39:31;13.80;99.90
24226;DHT22;51462;51.422;5.514;2022-10-14T04:41:56;13.70;99.90
24226;DHT22;51462;51.422;5.514;2022-10-14T04:44:22;13.80;99.90
24226;DHT22;51462;51.422;5.514;2022-10-14T04:46:47;13.80;99.90
24226;DHT22;51462;51.422;5.514;2022-10-14T04:49:13;13.80;99.90
24226;DHT22;51462;51.422;5.514;2022-10-14T04:51:41;13.80;99.90
24226;DHT22;51462;51.422;5.514;2022-10-14T04:54:06;13.80;99.90
24226;DHT22;51462;51.422;5.514;2022-10-14T04:56:32;13.70;99.90
24226;DHT22;51462;51.422;5.514;2022-10-14T04:58:57;13.70;99.90
24226;DHT22;51462;51.422;5.514;2022-10-14T05:01:23;13.70;99.90
24226;DHT22;51462;51.422;5.514;2022-10-14T05:03:48;13.70;99.90
24226;DHT22;51462;51.422;5.514;2022-10-14T05:06:16;13.70;99.90
24226;DHT22;51462;51.422;5.514;2022-10-14T05:08:41;13.70;99.90
24226;DHT22;51462;51.422;5.514;2022-10-14T05:11:07;13.70;99.90
24226;DHT22;51462;51.422;5.514;2022-10-14T05:13:32;13.80;99.90
24226;DHT22;51462;51.422;5.514;2022-10-14T05:15:58;13.80;99.90
24226;DHT22;51462;51.422;5.514;2022-10-14T05:18:23;13.80;99.90
24226;DHT22;51462;51.422;5.514;2022-10-14T05:20:49;13.80;99.90
24226;DHT22;51462;51.422;5.514;2022-10-14T05:23:15;13.90;99.90
24226;DHT22;51462;51.422;5.514;2022-10-14T05:25:41;13.90;99.90
24226;DHT22;51462;51.422;5.514;2022-10-14T05:28:06;13.80;99.90
24226;DHT22;51462;51.422;5.514;2022-10-14T05:30:32;13.90;99.90
24226;DHT22;51462;51.422;5.514;2022-10-14T05:32:57;13.90;99.90
24226;DHT22;51462;51.422;5.514;2022-10-14T05:35:23;13.90;99.90
24226;DHT22;51462;51.422;5.514;2022-10-14T05:37:53;13.80;99.90
24226;DHT22;51462;51.422;5.514;2022-10-14T05:40:20;13.80;99.90
24226;DHT22;51462;51.422;5.514;2022-10-14T05:42:45;13.90;99.90
24226;DHT22;51462;51.422;5.514;2022-10-14T05:45:11;13.90;99.90
24226;DHT22;51462;51.422;5.514;2022-10-14T05:47:36;13.90;99.90
24226;DHT22;51462;51.422;5.514;2022-10-14T05:50:02;13.90;99.90
24226;DHT22;51462;51.422;5.514;2022-10-14T05:52:29;13.90;99.90
24226;DHT22;51462;51.422;5.514;2022-10-14T05:54:57;13.90;99.90
24226;DHT22;51462;51.422;5.514;2022-10-14T05:57:22;13.90;99.90
24226;DHT22;51462;51.422;5.514;2022-10-14T05:59:48;13.90;99.90
24226;DHT22;51462;51.422;5.514;2022-10-14T06:02:13;13.90;99.90
24226;DHT22;51462;51.422;5.514;2022-10-14T06:04:39;13.90;99.90
24226;DHT22;51462;51.422;5.514;2022-10-14T06:07:07;13.90;99.90
24226;DHT22;51462;51.422;5.514;2022-10-14T06:09:35;13.90;99.90
24226;DHT22;51462;51.422;5.514;2022-10-14T06:12:01;13.90;99.90
24226;DHT22;51462;51.422;5.514;2022-10-14T06:14:26;13.90;99.90
24226;DHT22;51462;51.422;5.514;2022-10-14T06:16:52;13.90;99.90
24226;DHT22;51462;51.422;5.514;2022-10-14T06:19:17;13.90;99.90
24226;DHT22;51462;51.422;5.514;2022-10-14T06:21:43;13.90;99.90
24226;DHT22;51462;51.422;5.514;2022-10-14T06:24:09;13.90;99.90
24226;DHT22;51462;51.422;5.514;2022-10-14T06:26:35;13.90;99.90
24226;DHT22;51462;51.422;5.514;2022-10-14T06:29:01;13.90;99.90
24226;DHT22;51462;51.422;5.514;2022-10-14T06:31:26;13.90;99.90
24226;DHT22;51462;51.422;5.514;2022-10-14T06:33:52;13.90;99.90
24226;DHT22;51462;51.422;5.514;2022-10-14T06:36:17;14.00;99.90
24226;DHT22;51462;51.422;5.514;2022-10-14T06:38:43;14.10;99.90
24226;DHT22;51462;51.422;5.514;2022-10-14T06:41:08;13.90;99.90
24226;DHT22;51462;51.422;5.514;2022-10-14T06:43:34;13.90;99.90
24226;DHT22;51462;51.422;5.514;2022-10-14T06:46:02;14.00;99.90
24226;DHT22;51462;51.422;5.514;2022-10-14T06:48:28;14.00;99.90
24226;DHT22;51462;51.422;5.514;2022-10-14T06:50:54;14.00;99.90
24226;DHT22;51462;51.422;5.514;2022-10-14T06:53:20;14.00;99.90
24226;DHT22;51462;51.422;5.514;2022-10-14T06:55:45;13.90;99.90
24226;DHT22;51462;51.422;5.514;2022-10-14T06:58:11;14.00;99.90
24226;DHT22;51462;51.422;5.514;2022-10-14T07:00:36;14.00;99.90
24226;DHT22;51462;51.422;5.514;2022-10-14T07:03:02;14.00;99.90
24226;DHT22;51462;51.422;5.514;2022-10-14T07:05:28;14.00;99.90
24226;DHT22;51462;51.422;5.514;2022-10-14T07:07:56;14.00;99.90
24226;DHT22;51462;51.422;5.514;2022-10-14T07:10:22;14.00;99.90
24226;DHT22;51462;51.422;5.514;2022-10-14T07:12:48;14.10;99.90
24226;DHT22;51462;51.422;5.514;2022-10-14T07:15:13;14.00;99.90
24226;DHT22;51462;51.422;5.514;2022-10-14T07:17:39;14.00;99.90
24226;DHT22;51462;51.422;5.514;2022-10-14T07:20:05;14.10;99.90
24226;DHT22;51462;51.422;5.514;2022-10-14T07:22:30;14.00;99.90
24226;DHT22;51462;51.422;5.514;2022-10-14T07:24:56;14.10;99.90
24226;DHT22;51462;51.422;5.514;2022-10-14T07:27:21;14.00;99.90
24226;DHT22;51462;51.422;5.514;2022-10-14T07:29:47;14.00;99.90
24226;DHT22;51462;51.422;5.514;2022-10-14T07:32:13;14.00;99.90
24226;DHT22;51462;51.422;5.514;2022-10-14T07:34:38;14.00;99.90
24226;DHT22;51462;51.422;5.514;2022-10-14T07:37:04;14.00;99.90
24226;DHT22;51462;51.422;5.514;2022-10-14T07:39:30;14.10;99.90
24226;DHT22;51462;51.422;5.514;2022-10-14T07:41:56;14.10;99.90
24226;DHT22;51462;51.422;5.514;2022-10-14T07:44:21;14.20;99.90
24226;DHT22;51462;51.422;5.514;2022-10-14T07:46:47;14.10;99.90
24226;DHT22;51462;51.422;5.514;2022-10-14T07:49:16;14.10;99.90
24226;DHT22;51462;51.422;5.514;2022-10-14T07:51:42;14.20;99.90
24226;DHT22;51462;51.422;5.514;2022-10-14T07:54:15;14.20;99.90
24226;DHT22;51462;51.422;5.514;2022-10-14T07:56:41;14.20;99.90
24226;DHT22;51462;51.422;5.514;2022-10-14T07:59:07;14.20;99.90
24226;DHT22;51462;51.422;5.514;2022-10-14T08:01:33;14.20;99.90
24226;DHT22;51462;51.422;5.514;2022-10-14T08:03:59;14.20;99.90
24226;DHT22;51462;51.422;5.514;2022-10-14T08:06:25;14.30;99.90
24226;DHT22;51462;51.422;5.514;2022-10-14T08:08:51;14.30;99.90
24226;DHT22;51462;51.422;5.514;2022-10-14T08:11:20;14.30;99.90
24226;DHT22;51462;51.422;5.514;2022-10-14T08:13:46;14.20;99.90
24226;DHT22;51462;51.422;5.514;2022-10-14T08:18:42;14.30;99.90
24226;DHT22;51462;51.422;5.514;2022-10-14T08:21:08;14.50;99.90
24226;DHT22;51462;51.422;5.514;2022-10-14T08:23:33;14.40;99.90
24226;DHT22;51462;51.422;5.514;2022-10-14T08:25:59;14.40;99.90
24226;DHT22;51462;51.422;5.514;2022-10-14T08:28:24;14.20;99.90
24226;DHT22;51462;51.422;5.514;2022-10-14T08:30:50;14.40;99.90
24226;DHT22;51462;51.422;5.514;2022-10-14T08:33:17;14.40;99.90
24226;DHT22;51462;51.422;5.514;2022-10-14T08:35:42;14.50;99.90
24226;DHT22;51462;51.422;5.514;2022-10-14T08:38:08;14.50;99.90
24226;DHT22;51462;51.422;5.514;2022-10-14T08:40:48;14.40;99.90
24226;DHT22;51462;51.422;5.514;2022-10-14T08:43:28;14.50;99.90
24226;DHT22;51462;51.422;5.514;2022-10-14T08:45:56;14.50;99.90
24226;DHT22;51462;51.422;5.514;2022-10-14T08:48:27;14.50;99.90
24226;DHT22;51462;51.422;5.514;2022-10-14T08:51:15;14.50;99.90
24226;DHT22;51462;51.422;5.514;2022-10-14T08:53:45;14.60;99.90
24226;DHT22;51462;51.422;5.514;2022-10-14T08:56:13;14.60;99.90
24226;DHT22;51462;51.422;5.514;2022-10-14T08:58:46;14.60;99.90
24226;DHT22;51462;51.422;5.514;2022-10-14T09:01:24;14.60;99.90
24226;DHT22;51462;51.422;5.514;2022-10-14T09:04:03;14.60;99.90
24226;DHT22;51462;51.422;5.514;2022-10-14T09:06:34;14.70;99.90
24226;DHT22;51462;51.422;5.514;2022-10-14T09:11:54;14.70;99.90
24226;DHT22;51462;51.422;5.514;2022-10-14T09:14:24;14.70;99.90
24226;DHT22;51462;51.422;5.514;2022-10-14T09:16:55;14.80;99.90
24226;DHT22;51462;51.422;5.514;2022-10-14T09:21:53;14.70;99.90
24226;DHT22;51462;51.422;5.514;2022-10-14T09:24:34;14.80;99.90
24226;DHT22;51462;51.422;5.514;2022-10-14T09:27:26;14.80;99.90
24226;DHT22;51462;51.422;5.514;2022-10-14T09:29:58;14.80;99.90
24226;DHT22;51462;51.422;5.514;2022-10-14T09:34:50;14.80;99.90
24226;DHT22;51462;51.422;5.514;2022-10-14T09:37:34;14.80;99.90
24226;DHT22;51462;51.422;5.514;2022-10-14T09:45:50;14.90;99.90
24226;DHT22;51462;51.422;5.514;2022-10-14T09:50:54;15.00;99.90
24226;DHT22;51462;51.422;5.514;2022-10-14T09:53:32;14.90;99.90
24226;DHT22;51462;51.422;5.514;2022-10-14T09:56:01;14.90;99.90
24226;DHT22;51462;51.422;5.514;2022-10-14T10:01:15;15.10;99.90
24226;DHT22;51462;51.422;5.514;2022-10-14T10:03:41;15.10;99.90
24226;DHT22;51462;51.422;5.514;2022-10-14T10:06:09;15.10;99.90
24226;DHT22;51462;51.422;5.514;2022-10-14T10:08:52;15.10;99.90
24226;DHT22;51462;51.422;5.514;2022-10-14T10:11:38;15.10;99.90
24226;DHT22;51462;51.422;5.514;2022-10-14T10:14:26;15.10;99.90
24226;DHT22;51462;51.422;5.514;2022-10-14T10:19:35;15.10;99.90
24226;DHT22;51462;51.422;5.514;2022-10-14T10:22:33;15.10;99.90
24226;DHT22;51462;51.422;5.514;2022-10-14T10:27:32;15.10;99.90
24226;DHT22;51462;51.422;5.514;2022-10-14T10:30:20;15.10;99.90
24226;DHT22;51462;51.422;5.514;2022-10-14T10:33:01;15.20;99.90
24226;DHT22;51462;51.422;5.514;2022-10-14T10:38:27;15.20;99.90
24226;DHT22;51462;51.422;5.514;2022-10-14T10:41:04;15.30;99.90
24226;DHT22;51462;51.422;5.514;2022-10-14T10:46:57;15.20;99.90
24226;DHT22;51462;51.422;5.514;2022-10-14T10:49:51;15.30;99.90
24226;DHT22;51462;51.422;5.514;2022-10-14T10:55:27;15.20;99.90
24226;DHT22;51462;51.422;5.514;2022-10-14T10:58:15;15.30;99.90
24226;DHT22;51462;51.422;5.514;2022-10-14T11:00:56;15.40;99.90
24226;DHT22;51462;51.422;5.514;2022-10-14T11:06:16;15.30;99.90
24226;DHT22;51462;51.422;5.514;2022-10-14T11:09:11;15.40;99.90
24226;DHT22;51462;51.422;5.514;2022-10-14T11:17:57;15.40;99.90
24226;DHT22;51462;51.422;5.514;2022-10-14T11:21:00;15.30;99.90
24226;DHT22;51462;51.422;5.514;2022-10-14T11:23:34;15.40;99.90
24226;DHT22;51462;51.422;5.514;2022-10-14T11:31:39;15.50;99.90
24226;DHT22;51462;51.422;5.514;2022-10-14T11:39:57;15.50;99.90
24226;DHT22;51462;51.422;5.514;2022-10-14T11:48:20;15.50;99.90
24226;DHT22;51462;51.422;5.514;2022-10-14T11:50:51;15.50;99.90
24226;DHT22;51462;51.422;5.514;2022-10-14T11:56:00;15.50;99.90
24226;DHT22;51462;51.422;5.514;2022-10-14T11:58:28;15.50;99.90
24226;DHT22;51462;51.422;5.514;2022-10-14T12:00:59;15.60;99.90
24226;DHT22;51462;51.422;5.514;2022-10-14T12:06:05;15.50;99.90
24226;DHT22;51462;51.422;5.514;2022-10-14T12:11:50;15.60;99.90
24226;DHT22;51462;51.422;5.514;2022-10-14T12:16:57;15.60;99.90
24226;DHT22;51462;51.422;5.514;2022-10-14T12:19:26;15.60;99.90
24226;DHT22;51462;51.422;5.514;2022-10-14T12:24:42;15.60;99.90
24226;DHT22;51462;51.422;5.514;2022-10-14T12:27:12;15.60;99.90
24226;DHT22;51462;51.422;5.514;2022-10-14T12:29:46;15.70;99.90
24226;DHT22;51462;51.422;5.514;2022-10-14T12:34:44;15.70;99.90
24226;DHT22;51462;51.422;5.514;2022-10-14T12:42:37;15.70;99.90
24226;DHT22;51462;51.422;5.514;2022-10-14T12:45:21;15.70;99.90
24226;DHT22;51462;51.422;5.514;2022-10-14T12:48:11;15.80;99.90
24226;DHT22;51462;51.422;5.514;2022-10-14T12:50:39;15.80;99.90
24226;DHT22;51462;51.422;5.514;2022-10-14T12:53:22;15.90;99.90
24226;DHT22;51462;51.422;5.514;2022-10-14T12:55:57;15.90;99.90
24226;DHT22;51462;51.422;5.514;2022-10-14T13:01:01;15.90;99.90
24226;DHT22;51462;51.422;5.514;2022-10-14T13:03:31;15.90;99.90
24226;DHT22;51462;51.422;5.514;2022-10-14T13:09:16;15.90;99.90
24226;DHT22;51462;51.422;5.514;2022-10-14T13:11:43;15.90;99.90
24226;DHT22;51462;51.422;5.514;2022-10-14T13:14:29;15.80;99.90
24226;DHT22;51462;51.422;5.514;2022-10-14T13:16:57;15.90;99.90
24226;DHT22;51462;51.422;5.514;2022-10-14T13:22:43;15.90;99.90
24226;DHT22;51462;51.422;5.514;2022-10-14T13:24:44;15.90;99.90
24226;DHT22;51462;51.422;5.514;2022-10-14T13:27:33;15.90;99.90
24226;DHT22;51462;51.422;5.514;2022-10-14T13:30:04;16.00;99.90
24226;DHT22;51462;51.422;5.514;2022-10-14T13:32:46;15.90;99.90
24226;DHT22;51462;51.422;5.514;2022-10-14T13:35:41;15.80;99.90
24226;DHT22;51462;51.422;5.514;2022-10-14T13:38:19;15.90;99.90
24226;DHT22;51462;51.422;5.514;2022-10-14T13:40:47;15.90;99.90
24226;DHT22;51462;51.422;5.514;2022-10-14T13:46:03;15.80;99.90
24226;DHT22;51462;51.422;5.514;2022-10-14T13:48:39;15.90;99.90
24226;DHT22;51462;51.422;5.514;2022-10-14T13:53:55;15.90;99.90
24226;DHT22;51462;51.422;5.514;2022-10-14T13:56:26;15.90;99.90
24226;DHT22;51462;51.422;5.514;2022-10-14T13:58:52;16.00;99.90
24226;DHT22;51462;51.422;5.514;2022-10-14T14:01:25;16.20;99.90
24226;DHT22;51462;51.422;5.514;2022-10-14T14:03:55;16.20;99.90
24226;DHT22;51462;51.422;5.514;2022-10-14T14:06:22;16.30;99.90
24226;DHT22;51462;51.422;5.514;2022-10-14T14:08:54;16.40;99.90
24226;DHT22;51462;51.422;5.514;2022-10-14T14:11:28;16.30;99.90
24226;DHT22;51462;51.422;5.514;2022-10-14T14:13:59;16.40;99.90
24226;DHT22;51462;51.422;5.514;2022-10-14T14:16:35;16.40;99.90
24226;DHT22;51462;51.422;5.514;2022-10-14T14:19:02;16.50;99.90
24226;DHT22;51462;51.422;5.514;2022-10-14T14:21:28;16.20;99.90
24226;DHT22;51462;51.422;5.514;2022-10-14T14:23:56;16.20;99.90
24226;DHT22;51462;51.422;5.514;2022-10-14T14:26:32;16.40;99.90
24226;DHT22;51462;51.422;5.514;2022-10-14T14:28:58;16.30;99.90
24226;DHT22;51462;51.422;5.514;2022-10-14T14:31:25;16.40;99.90
24226;DHT22;51462;51.422;5.514;2022-10-14T14:33:56;16.30;99.90
24226;DHT22;51462;51.422;5.514;2022-10-14T14:36:25;16.30;99.90
24226;DHT22;51462;51.422;5.514;2022-10-14T14:38:55;16.30;99.90
24226;DHT22;51462;51.422;5.514;2022-10-14T14:41:27;16.20;99.90
24226;DHT22;51462;51.422;5.514;2022-10-14T14:43:56;16.20;99.90
24226;DHT22;51462;51.422;5.514;2022-10-14T14:46:30;16.20;99.90
24226;DHT22;51462;51.422;5.514;2022-10-14T14:48:58;16.20;99.90
24226;DHT22;51462;51.422;5.514;2022-10-14T14:51:27;16.20;99.90
24226;DHT22;51462;51.422;5.514;2022-10-14T14:53:55;16.30;99.90
24226;DHT22;51462;51.422;5.514;2022-10-14T14:56:33;16.20;99.90
24226;DHT22;51462;51.422;5.514;2022-10-14T15:01:42;16.30;99.90
24226;DHT22;51462;51.422;5.514;2022-10-14T15:04:19;16.30;99.90
24226;DHT22;51462;51.422;5.514;2022-10-14T15:10:00;16.30;99.90
24226;DHT22;51462;51.422;5.514;2022-10-14T15:12:29;16.30;99.90
24226;DHT22;51462;51.422;5.514;2022-10-14T15:14:59;16.20;99.90
24226;DHT22;51462;51.422;5.514;2022-10-14T15:17:38;16.30;99.90
24226;DHT22;51462;51.422;5.514;2022-10-14T15:33:16;16.30;99.90
24226;DHT22;51462;51.422;5.514;2022-10-14T15:35:43;16.30;99.90
24226;DHT22;51462;51.422;5.514;2022-10-14T15:38:15;16.30;99.90
24226;DHT22;51462;51.422;5.514;2022-10-14T15:40:41;16.30;99.90
24226;DHT22;51462;51.422;5.514;2022-10-14T15:43:11;16.30;99.90
24226;DHT22;51462;51.422;5.514;2022-10-14T15:45:37;16.20;99.90
24226;DHT22;51462;51.422;5.514;2022-10-14T15:48:05;16.20;99.90
24226;DHT22;51462;51.422;5.514;2022-10-14T15:50:31;16.20;99.90
24226;DHT22;51462;51.422;5.514;2022-10-14T15:52:57;16.20;99.90
24226;DHT22;51462;51.422;5.514;2022-10-14T15:55:28;16.10;99.90
24226;DHT22;51462;51.422;5.514;2022-10-14T15:57:54;16.20;99.90
24226;DHT22;51462;51.422;5.514;2022-10-14T16:00:22;16.10;99.90
24226;DHT22;51462;51.422;5.514;2022-10-14T16:02:51;16.10;99.90
24226;DHT22;51462;51.422;5.514;2022-10-14T16:05:19;16.20;99.90
24226;DHT22;51462;51.422;5.514;2022-10-14T16:07:44;16.10;99.90
24226;DHT22;51462;51.422;5.514;2022-10-14T16:10:13;16.10;99.90
24226;DHT22;51462;51.422;5.514;2022-10-14T16:12:39;16.10;99.90
24226;DHT22;51462;51.422;5.514;2022-10-14T16:15:34;16.10;99.90
24226;DHT22;51462;51.422;5.514;2022-10-14T16:18:03;16.00;99.90
24226;DHT22;51462;51.422;5.514;2022-10-14T16:20:29;15.90;99.90
24226;DHT22;51462;51.422;5.514;2022-10-14T16:22:55;16.00;99.90
24226;DHT22;51462;51.422;5.514;2022-10-14T16:25:34;16.00;99.90
24226;DHT22;51462;51.422;5.514;2022-10-14T16:28:00;15.90;99.90
24226;DHT22;51462;51.422;5.514;2022-10-14T16:30:26;15.90;99.90
24226;DHT22;51462;51.422;5.514;2022-10-14T16:32:53;15.90;99.90
24226;DHT22;51462;51.422;5.514;2022-10-14T16:35:18;15.80;99.90
24226;DHT22;51462;51.422;5.514;2022-10-14T16:37:44;15.90;99.90
24226;DHT22;51462;51.422;5.514;2022-10-14T16:40:11;15.80;99.90
24226;DHT22;51462;51.422;5.514;2022-10-14T16:42:36;15.70;99.90
24226;DHT22;51462;51.422;5.514;2022-10-14T16:45:03;15.70;99.90
24226;DHT22;51462;51.422;5.514;2022-10-14T16:47:28;15.70;99.90
24226;DHT22;51462;51.422;5.514;2022-10-14T16:49:54;15.70;99.90
24226;DHT22;51462;51.422;5.514;2022-10-14T16:52:21;15.70;99.90
24226;DHT22;51462;51.422;5.514;2022-10-14T16:54:47;15.70;99.90
24226;DHT22;51462;51.422;5.514;2022-10-14T16:57:13;15.70;99.90
24226;DHT22;51462;51.422;5.514;2022-10-14T16:59:38;15.70;99.90
24226;DHT22;51462;51.422;5.514;2022-10-14T17:02:04;15.70;99.90
24226;DHT22;51462;51.422;5.514;2022-10-14T17:04:33;15.60;99.90
24226;DHT22;51462;51.422;5.514;2022-10-14T17:06:58;15.70;99.90
24226;DHT22;51462;51.422;5.514;2022-10-14T17:09:31;15.60;99.90
24226;DHT22;51462;51.422;5.514;2022-10-14T17:11:57;15.60;99.90
24226;DHT22;51462;51.422;5.514;2022-10-14T17:14:22;15.60;99.90
24226;DHT22;51462;51.422;5.514;2022-10-14T17:16:48;15.50;99.90
24226;DHT22;51462;51.422;5.514;2022-10-14T17:19:17;15.50;99.90
24226;DHT22;51462;51.422;5.514;2022-10-14T17:21:43;15.50;99.90
24226;DHT22;51462;51.422;5.514;2022-10-14T17:24:08;15.50;99.90
24226;DHT22;51462;51.422;5.514;2022-10-14T17:26:34;15.50;99.90
24226;DHT22;51462;51.422;5.514;2022-10-14T17:29:00;15.50;99.90
24226;DHT22;51462;51.422;5.514;2022-10-14T17:31:27;15.50;99.90
24226;DHT22;51462;51.422;5.514;2022-10-14T17:33:53;15.50;99.90
24226;DHT22;51462;51.422;5.514;2022-10-14T17:36:21;15.50;99.90
24226;DHT22;51462;51.422;5.514;2022-10-14T17:38:49;15.50;99.90
24226;DHT22;51462;51.422;5.514;2022-10-14T17:41:20;15.40;99.90
24226;DHT22;51462;51.422;5.514;2022-10-14T17:43:48;15.30;99.90
24226;DHT22;51462;51.422;5.514;2022-10-14T17:46:16;15.30;99.90
24226;DHT22;51462;51.422;5.514;2022-10-14T17:48:46;15.30;99.90
24226;DHT22;51462;51.422;5.514;2022-10-14T17:51:12;15.30;99.90
24226;DHT22;51462;51.422;5.514;2022-10-14T17:53:38;15.30;99.90
24226;DHT22;51462;51.422;5.514;2022-10-14T17:56:05;15.30;99.90
24226;DHT22;51462;51.422;5.514;2022-10-14T17:58:31;15.30;99.90
24226;DHT22;51462;51.422;5.514;2022-10-14T18:01:10;15.30;99.90
24226;DHT22;51462;51.422;5.514;2022-10-14T18:03:38;15.20;99.90
24226;DHT22;51462;51.422;5.514;2022-10-14T18:08:33;15.20;99.90
24226;DHT22;51462;51.422;5.514;2022-10-14T18:11:05;15.20;99.90